EPLL/LCJ METAR and TAF weather

Enter ICAO airport designator
Station Type Date Time Source
EPLL METAR 2020/04/06 09:30 UTC NOAA

EPLL 060930Z 13007KT 090V170 CAVOK 14/M03 Q1030


Station Type Date Time Source
EPLL Decoded METAR 2020/04/06 09:30 UTC NOAA

Station name not available
Apr 06, 2020 - 05:30 AM EDT / 2020.04.06 0930 UTC
Wind: from the SE (130 degrees) at 8 MPH (7 KT) (direction variable):0
Visibility: greater than 7 mile(s):0
Temperature: 57 F (14 C)
Dew Point: 26 F (-3 C)
Relative Humidity: 30%
Pressure (altimeter): 30.42 in. Hg (1030 hPa)
ob: EPLL 060930Z 13007KT 090V170 CAVOK 14/M03 Q1030
cycle: 9

Station Type Date Time Source
EPLL TAF 2020/04/06 06:00 UTC NOAA

TAF EPLL 060530Z 0606/0706 12008KT CAVOK
BECMG 0614/0617 19010KT

Example: see airport list